sensor_id;sensor_type;location;lat;lon;timestamp;P1;durP1;ratioP1;P2;durP2;ratioP2
37355;SDS011;48747;50.250;18.848;2023-02-10T00:00:42;30.23;;;14.40;;
37355;SDS011;48747;50.250;18.848;2023-02-10T00:02:45;32.75;;;14.38;;
37355;SDS011;48747;50.250;18.848;2023-02-10T00:04:48;33.00;;;15.93;;
37355;SDS011;48747;50.250;18.848;2023-02-10T00:06:53;35.17;;;16.02;;
37355;SDS011;48747;50.250;18.848;2023-02-10T00:08:57;32.48;;;15.65;;
37355;SDS011;48747;50.250;18.848;2023-02-10T00:11:02;34.03;;;16.05;;
37355;SDS011;48747;50.250;18.848;2023-02-10T00:13:07;35.78;;;15.40;;
37355;SDS011;48747;50.250;18.848;2023-02-10T00:15:10;32.75;;;15.03;;
37355;SDS011;48747;50.250;18.848;2023-02-10T00:17:13;31.68;;;16.67;;
37355;SDS011;48747;50.250;18.848;2023-02-10T00:19:19;34.58;;;16.90;;
37355;SDS011;48747;50.250;18.848;2023-02-10T00:21:22;32.45;;;15.45;;
37355;SDS011;48747;50.250;18.848;2023-02-10T00:23:25;34.25;;;16.32;;
37355;SDS011;48747;50.250;18.848;2023-02-10T00:25:28;38.13;;;16.70;;
37355;SDS011;48747;50.250;18.848;2023-02-10T00:27:31;34.73;;;17.00;;
37355;SDS011;48747;50.250;18.848;2023-02-10T00:29:34;34.40;;;15.60;;
37355;SDS011;48747;50.250;18.848;2023-02-10T00:31:37;34.30;;;16.07;;
37355;SDS011;48747;50.250;18.848;2023-02-10T00:33:41;29.82;;;14.33;;
37355;SDS011;48747;50.250;18.848;2023-02-10T00:35:44;29.65;;;15.48;;
37355;SDS011;48747;50.250;18.848;2023-02-10T00:37:47;34.50;;;16.50;;
37355;SDS011;48747;50.250;18.848;2023-02-10T00:39:50;33.60;;;15.78;;
37355;SDS011;48747;50.250;18.848;2023-02-10T00:41:53;36.28;;;16.07;;
37355;SDS011;48747;50.250;18.848;2023-02-10T00:43:56;38.90;;;18.02;;
37355;SDS011;48747;50.250;18.848;2023-02-10T00:45:59;37.95;;;17.50;;
37355;SDS011;48747;50.250;18.848;2023-02-10T00:48:02;34.08;;;16.30;;
37355;SDS011;48747;50.250;18.848;2023-02-10T00:50:07;32.42;;;15.18;;
37355;SDS011;48747;50.250;18.848;2023-02-10T00:52:10;37.73;;;16.48;;
37355;SDS011;48747;50.250;18.848;2023-02-10T00:54:13;36.20;;;15.32;;
37355;SDS011;48747;50.250;18.848;2023-02-10T00:56:17;36.08;;;16.93;;
37355;SDS011;48747;50.250;18.848;2023-02-10T00:58:23;32.73;;;16.10;;
37355;SDS011;48747;50.250;18.848;2023-02-10T01:00:31;40.20;;;17.35;;
37355;SDS011;48747;50.250;18.848;2023-02-10T01:02:35;36.55;;;16.48;;
37355;SDS011;48747;50.250;18.848;2023-02-10T01:04:38;43.15;;;19.00;;
37355;SDS011;48747;50.250;18.848;2023-02-10T01:06:43;28.32;;;15.30;;
37355;SDS011;48747;50.250;18.848;2023-02-10T01:08:47;33.23;;;15.00;;
37355;SDS011;48747;50.250;18.848;2023-02-10T01:11:00;46.28;;;19.40;;
37355;SDS011;48747;50.250;18.848;2023-02-10T01:13:03;39.53;;;17.12;;
37355;SDS011;48747;50.250;18.848;2023-02-10T01:15:10;32.08;;;14.18;;
37355;SDS011;48747;50.250;18.848;2023-02-10T01:17:12;36.83;;;16.50;;
37355;SDS011;48747;50.250;18.848;2023-02-10T01:19:15;25.30;;;14.20;;
37355;SDS011;48747;50.250;18.848;2023-02-10T01:21:19;36.23;;;15.65;;
37355;SDS011;48747;50.250;18.848;2023-02-10T01:23:22;31.27;;;15.70;;
37355;SDS011;48747;50.250;18.848;2023-02-10T01:25:26;31.87;;;15.90;;
37355;SDS011;48747;50.250;18.848;2023-02-10T01:27:29;34.33;;;16.10;;
37355;SDS011;48747;50.250;18.848;2023-02-10T01:29:37;32.75;;;16.70;;
37355;SDS011;48747;50.250;18.848;2023-02-10T01:31:36;29.92;;;15.60;;
37355;SDS011;48747;50.250;18.848;2023-02-10T01:33:39;31.15;;;15.88;;
37355;SDS011;48747;50.250;18.848;2023-02-10T01:35:43;29.18;;;14.00;;
37355;SDS011;48747;50.250;18.848;2023-02-10T01:37:46;33.40;;;16.25;;
37355;SDS011;48747;50.250;18.848;2023-02-10T01:39:49;31.73;;;15.70;;
37355;SDS011;48747;50.250;18.848;2023-02-10T01:41:52;34.50;;;16.77;;
37355;SDS011;48747;50.250;18.848;2023-02-10T01:43:57;30.12;;;16.12;;
37355;SDS011;48747;50.250;18.848;2023-02-10T01:46:04;35.08;;;18.20;;
37355;SDS011;48747;50.250;18.848;2023-02-10T01:48:08;36.30;;;17.45;;
37355;SDS011;48747;50.250;18.848;2023-02-10T01:50:12;35.23;;;16.12;;
37355;SDS011;48747;50.250;18.848;2023-02-10T01:52:26;32.78;;;15.75;;
37355;SDS011;48747;50.250;18.848;2023-02-10T01:54:26;35.15;;;17.45;;
37355;SDS011;48747;50.250;18.848;2023-02-10T01:56:31;32.50;;;16.42;;
37355;SDS011;48747;50.250;18.848;2023-02-10T01:58:34;32.73;;;16.52;;
37355;SDS011;48747;50.250;18.848;2023-02-10T02:00:38;30.52;;;15.72;;
37355;SDS011;48747;50.250;18.848;2023-02-10T02:02:42;32.35;;;15.45;;
37355;SDS011;48747;50.250;18.848;2023-02-10T02:04:50;32.05;;;15.18;;
37355;SDS011;48747;50.250;18.848;2023-02-10T02:06:54;31.68;;;15.65;;
37355;SDS011;48747;50.250;18.848;2023-02-10T02:08:57;32.15;;;15.13;;
37355;SDS011;48747;50.250;18.848;2023-02-10T02:13:10;31.10;;;15.05;;
37355;SDS011;48747;50.250;18.848;2023-02-10T02:17:39;38.30;;;16.75;;
37355;SDS011;48747;50.250;18.848;2023-02-10T02:20:04;37.13;;;17.37;;
37355;SDS011;48747;50.250;18.848;2023-02-10T02:24:55;30.37;;;15.63;;
37355;SDS011;48747;50.250;18.848;2023-02-10T02:27:15;30.55;;;14.98;;
37355;SDS011;48747;50.250;18.848;2023-02-10T02:33:56;33.23;;;15.75;;
37355;SDS011;48747;50.250;18.848;2023-02-10T02:36:07;30.12;;;16.07;;
37355;SDS011;48747;50.250;18.848;2023-02-10T02:38:11;29.85;;;15.43;;
37355;SDS011;48747;50.250;18.848;2023-02-10T02:40:14;31.15;;;14.93;;
37355;SDS011;48747;50.250;18.848;2023-02-10T02:42:22;34.33;;;15.50;;
37355;SDS011;48747;50.250;18.848;2023-02-10T02:44:29;31.97;;;15.13;;
37355;SDS011;48747;50.250;18.848;2023-02-10T02:51:05;31.80;;;15.43;;
37355;SDS011;48747;50.250;18.848;2023-02-10T02:53:37;30.70;;;15.18;;
37355;SDS011;48747;50.250;18.848;2023-02-10T02:58:04;33.18;;;16.12;;
37355;SDS011;48747;50.250;18.848;2023-02-10T03:00:12;26.52;;;14.35;;
37355;SDS011;48747;50.250;18.848;2023-02-10T03:02:17;31.70;;;14.87;;
37355;SDS011;48747;50.250;18.848;2023-02-10T03:04:22;35.43;;;15.13;;
37355;SDS011;48747;50.250;18.848;2023-02-10T03:06:27;28.40;;;15.63;;
37355;SDS011;48747;50.250;18.848;2023-02-10T03:08:31;31.70;;;15.25;;
37355;SDS011;48747;50.250;18.848;2023-02-10T03:10:36;29.57;;;15.50;;
37355;SDS011;48747;50.250;18.848;2023-02-10T03:12:39;33.63;;;15.80;;
37355;SDS011;48747;50.250;18.848;2023-02-10T03:14:42;31.33;;;15.18;;
37355;SDS011;48747;50.250;18.848;2023-02-10T03:16:45;34.95;;;16.35;;
37355;SDS011;48747;50.250;18.848;2023-02-10T03:18:48;32.23;;;15.45;;
37355;SDS011;48747;50.250;18.848;2023-02-10T03:20:51;26.15;;;13.38;;
37355;SDS011;48747;50.250;18.848;2023-02-10T03:22:54;34.13;;;16.60;;
37355;SDS011;48747;50.250;18.848;2023-02-10T03:24:59;31.35;;;15.63;;
37355;SDS011;48747;50.250;18.848;2023-02-10T03:27:02;32.85;;;15.38;;
37355;SDS011;48747;50.250;18.848;2023-02-10T03:29:06;32.73;;;15.30;;
37355;SDS011;48747;50.250;18.848;2023-02-10T03:31:09;29.77;;;15.53;;
37355;SDS011;48747;50.250;18.848;2023-02-10T03:33:13;32.73;;;17.42;;
37355;SDS011;48747;50.250;18.848;2023-02-10T03:35:16;31.40;;;16.23;;
37355;SDS011;48747;50.250;18.848;2023-02-10T03:37:21;35.45;;;16.85;;
37355;SDS011;48747;50.250;18.848;2023-02-10T03:39:24;36.35;;;17.37;;
37355;SDS011;48747;50.250;18.848;2023-02-10T03:41:27;31.05;;;14.95;;
37355;SDS011;48747;50.250;18.848;2023-02-10T03:43:30;31.62;;;15.30;;
37355;SDS011;48747;50.250;18.848;2023-02-10T03:45:34;27.73;;;15.08;;
37355;SDS011;48747;50.250;18.848;2023-02-10T03:47:37;31.15;;;14.28;;
37355;SDS011;48747;50.250;18.848;2023-02-10T03:49:40;32.75;;;16.32;;
37355;SDS011;48747;50.250;18.848;2023-02-10T03:51:48;32.58;;;16.27;;
37355;SDS011;48747;50.250;18.848;2023-02-10T03:53:47;29.52;;;14.78;;
37355;SDS011;48747;50.250;18.848;2023-02-10T03:55:50;32.50;;;16.32;;
37355;SDS011;48747;50.250;18.848;2023-02-10T03:57:54;32.08;;;16.17;;
37355;SDS011;48747;50.250;18.848;2023-02-10T03:59:57;33.15;;;16.35;;
37355;SDS011;48747;50.250;18.848;2023-02-10T04:02:00;27.98;;;12.68;;
37355;SDS011;48747;50.250;18.848;2023-02-10T04:04:04;31.90;;;14.80;;
37355;SDS011;48747;50.250;18.848;2023-02-10T04:06:07;33.33;;;15.10;;
37355;SDS011;48747;50.250;18.848;2023-02-10T04:08:13;30.57;;;14.33;;
37355;SDS011;48747;50.250;18.848;2023-02-10T04:10:16;27.00;;;13.88;;
37355;SDS011;48747;50.250;18.848;2023-02-10T04:12:19;27.37;;;13.50;;
37355;SDS011;48747;50.250;18.848;2023-02-10T04:14:22;30.10;;;14.07;;
37355;SDS011;48747;50.250;18.848;2023-02-10T04:16:25;31.27;;;14.95;;
37355;SDS011;48747;50.250;18.848;2023-02-10T04:18:30;28.62;;;14.53;;
37355;SDS011;48747;50.250;18.848;2023-02-10T04:20:34;31.55;;;14.68;;
37355;SDS011;48747;50.250;18.848;2023-02-10T04:22:39;33.28;;;16.12;;
37355;SDS011;48747;50.250;18.848;2023-02-10T04:24:42;33.08;;;15.10;;
37355;SDS011;48747;50.250;18.848;2023-02-10T04:26:45;31.57;;;15.43;;
37355;SDS011;48747;50.250;18.848;2023-02-10T04:28:48;30.00;;;15.18;;
37355;SDS011;48747;50.250;18.848;2023-02-10T04:30:52;30.48;;;14.78;;
37355;SDS011;48747;50.250;18.848;2023-02-10T04:33:00;28.20;;;14.80;;
37355;SDS011;48747;50.250;18.848;2023-02-10T04:35:03;30.45;;;14.23;;
37355;SDS011;48747;50.250;18.848;2023-02-10T04:37:06;37.33;;;17.02;;
37355;SDS011;48747;50.250;18.848;2023-02-10T04:39:10;31.10;;;14.47;;
37355;SDS011;48747;50.250;18.848;2023-02-10T04:41:13;27.17;;;13.53;;
37355;SDS011;48747;50.250;18.848;2023-02-10T04:43:16;30.88;;;14.68;;
37355;SDS011;48747;50.250;18.848;2023-02-10T04:45:19;35.15;;;16.82;;
37355;SDS011;48747;50.250;18.848;2023-02-10T04:47:23;28.40;;;15.03;;
37355;SDS011;48747;50.250;18.848;2023-02-10T04:49:28;29.20;;;14.87;;
37355;SDS011;48747;50.250;18.848;2023-02-10T04:51:31;29.63;;;15.38;;
37355;SDS011;48747;50.250;18.848;2023-02-10T04:53:34;31.15;;;15.72;;
37355;SDS011;48747;50.250;18.848;2023-02-10T04:55:39;29.80;;;15.58;;
37355;SDS011;48747;50.250;18.848;2023-02-10T04:57:42;28.62;;;14.95;;
37355;SDS011;48747;50.250;18.848;2023-02-10T04:59:45;42.48;;;19.55;;
37355;SDS011;48747;50.250;18.848;2023-02-10T05:01:48;29.48;;;15.40;;
37355;SDS011;48747;50.250;18.848;2023-02-10T05:03:51;36.30;;;15.83;;
37355;SDS011;48747;50.250;18.848;2023-02-10T05:05:54;32.25;;;15.70;;
37355;SDS011;48747;50.250;18.848;2023-02-10T05:07:57;31.97;;;15.50;;
37355;SDS011;48747;50.250;18.848;2023-02-10T05:10:00;29.23;;;14.43;;
37355;SDS011;48747;50.250;18.848;2023-02-10T05:12:03;32.45;;;15.45;;
37355;SDS011;48747;50.250;18.848;2023-02-10T05:14:06;39.73;;;17.60;;
37355;SDS011;48747;50.250;18.848;2023-02-10T05:16:10;37.13;;;16.25;;
37355;SDS011;48747;50.250;18.848;2023-02-10T05:18:14;33.00;;;15.18;;
37355;SDS011;48747;50.250;18.848;2023-02-10T05:20:17;38.08;;;15.20;;
37355;SDS011;48747;50.250;18.848;2023-02-10T05:22:20;29.37;;;14.98;;
37355;SDS011;48747;50.250;18.848;2023-02-10T05:24:25;32.95;;;15.25;;
37355;SDS011;48747;50.250;18.848;2023-02-10T05:26:28;33.70;;;15.45;;
37355;SDS011;48747;50.250;18.848;2023-02-10T05:28:31;32.75;;;16.42;;
37355;SDS011;48747;50.250;18.848;2023-02-10T05:30:34;36.33;;;16.48;;
37355;SDS011;48747;50.250;18.848;2023-02-10T05:32:37;31.40;;;16.48;;
37355;SDS011;48747;50.250;18.848;2023-02-10T05:34:41;31.37;;;14.85;;
37355;SDS011;48747;50.250;18.848;2023-02-10T05:36:44;35.17;;;15.65;;
37355;SDS011;48747;50.250;18.848;2023-02-10T05:38:47;32.90;;;16.55;;
37355;SDS011;48747;50.250;18.848;2023-02-10T05:41:07;33.73;;;14.03;;
37355;SDS011;48747;50.250;18.848;2023-02-10T05:43:10;30.35;;;14.40;;
37355;SDS011;48747;50.250;18.848;2023-02-10T05:45:13;34.30;;;16.27;;
37355;SDS011;48747;50.250;18.848;2023-02-10T05:47:17;33.20;;;15.15;;
37355;SDS011;48747;50.250;18.848;2023-02-10T05:49:20;35.60;;;14.90;;
37355;SDS011;48747;50.250;18.848;2023-02-10T05:51:25;32.08;;;15.53;;
37355;SDS011;48747;50.250;18.848;2023-02-10T05:53:28;31.77;;;15.20;;
37355;SDS011;48747;50.250;18.848;2023-02-10T05:55:31;37.00;;;16.25;;
37355;SDS011;48747;50.250;18.848;2023-02-10T05:57:34;31.70;;;15.80;;
37355;SDS011;48747;50.250;18.848;2023-02-10T05:59:37;34.53;;;17.52;;
37355;SDS011;48747;50.250;18.848;2023-02-10T06:01:40;34.48;;;16.45;;
37355;SDS011;48747;50.250;18.848;2023-02-10T06:03:44;33.18;;;17.35;;
37355;SDS011;48747;50.250;18.848;2023-02-10T06:05:47;36.58;;;17.50;;
37355;SDS011;48747;50.250;18.848;2023-02-10T06:07:50;42.20;;;17.90;;
37355;SDS011;48747;50.250;18.848;2023-02-10T06:09:54;36.25;;;17.37;;
37355;SDS011;48747;50.250;18.848;2023-02-10T06:11:57;38.23;;;17.40;;
37355;SDS011;48747;50.250;18.848;2023-02-10T06:14:01;35.95;;;17.52;;
37355;SDS011;48747;50.250;18.848;2023-02-10T06:16:06;39.50;;;18.20;;
37355;SDS011;48747;50.250;18.848;2023-02-10T06:18:09;40.55;;;18.00;;
37355;SDS011;48747;50.250;18.848;2023-02-10T06:20:12;41.85;;;18.40;;
37355;SDS011;48747;50.250;18.848;2023-02-10T06:22:15;40.50;;;19.12;;
37355;SDS011;48747;50.250;18.848;2023-02-10T06:24:18;45.83;;;20.45;;
37355;SDS011;48747;50.250;18.848;2023-02-10T06:26:21;35.65;;;18.15;;
37355;SDS011;48747;50.250;18.848;2023-02-10T06:28:25;40.50;;;19.35;;
37355;SDS011;48747;50.250;18.848;2023-02-10T06:30:29;39.75;;;18.15;;
37355;SDS011;48747;50.250;18.848;2023-02-10T06:32:32;42.55;;;20.30;;
37355;SDS011;48747;50.250;18.848;2023-02-10T06:34:35;42.27;;;18.23;;
37355;SDS011;48747;50.250;18.848;2023-02-10T06:36:39;51.13;;;19.52;;
37355;SDS011;48747;50.250;18.848;2023-02-10T06:38:42;42.30;;;18.65;;
37355;SDS011;48747;50.250;18.848;2023-02-10T06:40:51;42.15;;;18.75;;
37355;SDS011;48747;50.250;18.848;2023-02-10T06:42:50;40.92;;;18.70;;
37355;SDS011;48747;50.250;18.848;2023-02-10T06:44:53;43.83;;;19.37;;
37355;SDS011;48747;50.250;18.848;2023-02-10T06:46:56;48.15;;;21.00;;
37355;SDS011;48747;50.250;18.848;2023-02-10T06:48:59;45.45;;;20.72;;
37355;SDS011;48747;50.250;18.848;2023-02-10T06:51:03;47.40;;;20.95;;
37355;SDS011;48747;50.250;18.848;2023-02-10T06:53:06;50.63;;;21.40;;
37355;SDS011;48747;50.250;18.848;2023-02-10T06:55:14;46.92;;;20.88;;
37355;SDS011;48747;50.250;18.848;2023-02-10T06:57:18;42.33;;;19.65;;
37355;SDS011;48747;50.250;18.848;2023-02-10T06:59:23;48.28;;;21.48;;
37355;SDS011;48747;50.250;18.848;2023-02-10T07:01:26;48.30;;;21.52;;
37355;SDS011;48747;50.250;18.848;2023-02-10T07:03:33;51.10;;;21.45;;
37355;SDS011;48747;50.250;18.848;2023-02-10T07:05:38;53.48;;;22.17;;
37355;SDS011;48747;50.250;18.848;2023-02-10T07:07:48;46.15;;;21.15;;
37355;SDS011;48747;50.250;18.848;2023-02-10T07:09:49;48.85;;;20.95;;
37355;SDS011;48747;50.250;18.848;2023-02-10T07:11:57;65.80;;;25.85;;
37355;SDS011;48747;50.250;18.848;2023-02-10T07:13:59;55.03;;;22.93;;
37355;SDS011;48747;50.250;18.848;2023-02-10T07:16:04;63.33;;;25.75;;
37355;SDS011;48747;50.250;18.848;2023-02-10T07:18:09;52.50;;;22.07;;
37355;SDS011;48747;50.250;18.848;2023-02-10T07:20:12;55.10;;;24.52;;
37355;SDS011;48747;50.250;18.848;2023-02-10T07:22:31;53.83;;;23.52;;
37355;SDS011;48747;50.250;18.848;2023-02-10T07:24:23;50.90;;;22.30;;
37355;SDS011;48747;50.250;18.848;2023-02-10T07:26:27;47.17;;;22.10;;
37355;SDS011;48747;50.250;18.848;2023-02-10T07:28:32;54.55;;;24.20;;
37355;SDS011;48747;50.250;18.848;2023-02-10T07:30:47;64.27;;;27.05;;
37355;SDS011;48747;50.250;18.848;2023-02-10T07:32:46;54.58;;;23.20;;
37355;SDS011;48747;50.250;18.848;2023-02-10T07:34:51;49.42;;;21.45;;
37355;SDS011;48747;50.250;18.848;2023-02-10T07:39:08;47.83;;;22.10;;
37355;SDS011;48747;50.250;18.848;2023-02-10T07:41:11;56.08;;;22.75;;
37355;SDS011;48747;50.250;18.848;2023-02-10T07:43:16;46.58;;;21.35;;
37355;SDS011;48747;50.250;18.848;2023-02-10T07:45:33;40.15;;;18.02;;
37355;SDS011;48747;50.250;18.848;2023-02-10T07:47:24;39.95;;;20.45;;
37355;SDS011;48747;50.250;18.848;2023-02-10T07:49:43;38.88;;;17.17;;
37355;SDS011;48747;50.250;18.848;2023-02-10T07:51:35;41.53;;;20.00;;
37355;SDS011;48747;50.250;18.848;2023-02-10T07:53:47;52.27;;;21.62;;
37355;SDS011;48747;50.250;18.848;2023-02-10T07:55:49;42.50;;;19.55;;
37355;SDS011;48747;50.250;18.848;2023-02-10T07:57:55;40.88;;;19.12;;
37355;SDS011;48747;50.250;18.848;2023-02-10T08:00:01;44.80;;;20.32;;
37355;SDS011;48747;50.250;18.848;2023-02-10T08:02:07;47.45;;;21.25;;
37355;SDS011;48747;50.250;18.848;2023-02-10T08:04:13;49.25;;;20.20;;
37355;SDS011;48747;50.250;18.848;2023-02-10T08:06:23;44.85;;;20.92;;
37355;SDS011;48747;50.250;18.848;2023-02-10T08:08:27;46.40;;;21.10;;
37355;SDS011;48747;50.250;18.848;2023-02-10T08:10:31;43.50;;;20.10;;
37355;SDS011;48747;50.250;18.848;2023-02-10T08:12:36;41.92;;;18.87;;
37355;SDS011;48747;50.250;18.848;2023-02-10T08:14:40;41.48;;;20.35;;
37355;SDS011;48747;50.250;18.848;2023-02-10T08:16:48;45.10;;;19.23;;
37355;SDS011;48747;50.250;18.848;2023-02-10T08:18:53;43.52;;;21.15;;
37355;SDS011;48747;50.250;18.848;2023-02-10T08:21:00;41.00;;;21.20;;
37355;SDS011;48747;50.250;18.848;2023-02-10T08:25:13;42.83;;;19.48;;
37355;SDS011;48747;50.250;18.848;2023-02-10T08:27:16;40.90;;;19.25;;
37355;SDS011;48747;50.250;18.848;2023-02-10T08:29:25;46.92;;;20.92;;
37355;SDS011;48747;50.250;18.848;2023-02-10T08:31:27;43.83;;;20.25;;
37355;SDS011;48747;50.250;18.848;2023-02-10T08:33:39;45.78;;;20.90;;
37355;SDS011;48747;50.250;18.848;2023-02-10T08:35:45;39.60;;;19.57;;
37355;SDS011;48747;50.250;18.848;2023-02-10T08:37:50;44.05;;;20.97;;
37355;SDS011;48747;50.250;18.848;2023-02-10T08:39:59;49.00;;;20.65;;
37355;SDS011;48747;50.250;18.848;2023-02-10T08:42:05;41.68;;;19.05;;
37355;SDS011;48747;50.250;18.848;2023-02-10T08:44:14;44.20;;;19.82;;
37355;SDS011;48747;50.250;18.848;2023-02-10T08:46:16;47.03;;;21.25;;
37355;SDS011;48747;50.250;18.848;2023-02-10T08:48:23;56.28;;;24.15;;
37355;SDS011;48747;50.250;18.848;2023-02-10T08:50:26;45.50;;;22.22;;
37355;SDS011;48747;50.250;18.848;2023-02-10T08:52:31;49.30;;;21.12;;
37355;SDS011;48747;50.250;18.848;2023-02-10T08:54:34;44.27;;;20.02;;
37355;SDS011;48747;50.250;18.848;2023-02-10T08:56:39;46.40;;;20.72;;
37355;SDS011;48747;50.250;18.848;2023-02-10T08:58:44;48.95;;;22.37;;
37355;SDS011;48747;50.250;18.848;2023-02-10T09:00:51;46.05;;;21.73;;
37355;SDS011;48747;50.250;18.848;2023-02-10T09:02:56;46.00;;;20.17;;
37355;SDS011;48747;50.250;18.848;2023-02-10T09:05:03;46.00;;;22.93;;
37355;SDS011;48747;50.250;18.848;2023-02-10T09:07:12;46.68;;;22.13;;
37355;SDS011;48747;50.250;18.848;2023-02-10T09:09:15;47.15;;;21.37;;
37355;SDS011;48747;50.250;18.848;2023-02-10T09:11:22;50.88;;;21.65;;
37355;SDS011;48747;50.250;18.848;2023-02-10T09:13:30;50.85;;;20.40;;
37355;SDS011;48747;50.250;18.848;2023-02-10T09:15:36;41.53;;;19.65;;
37355;SDS011;48747;50.250;18.848;2023-02-10T09:19:49;46.13;;;20.43;;
37355;SDS011;48747;50.250;18.848;2023-02-10T09:21:58;47.05;;;22.32;;
37355;SDS011;48747;50.250;18.848;2023-02-10T09:24:03;42.35;;;20.40;;
37355;SDS011;48747;50.250;18.848;2023-02-10T09:28:15;45.85;;;20.80;;
37355;SDS011;48747;50.250;18.848;2023-02-10T09:30:24;46.85;;;21.35;;
37355;SDS011;48747;50.250;18.848;2023-02-10T09:32:52;43.38;;;20.08;;
37355;SDS011;48747;50.250;18.848;2023-02-10T09:34:40;51.28;;;26.57;;
37355;SDS011;48747;50.250;18.848;2023-02-10T09:39:04;46.20;;;21.33;;
37355;SDS011;48747;50.250;18.848;2023-02-10T09:46:01;56.73;;;22.80;;
37355;SDS011;48747;50.250;18.848;2023-02-10T09:48:18;43.63;;;20.23;;
37355;SDS011;48747;50.250;18.848;2023-02-10T09:57:20;38.80;;;18.45;;
37355;SDS011;48747;50.250;18.848;2023-02-10T09:59:23;49.60;;;22.10;;
37355;SDS011;48747;50.250;18.848;2023-02-10T10:06:21;39.45;;;19.00;;
37355;SDS011;48747;50.250;18.848;2023-02-10T10:08:34;44.85;;;20.60;;
37355;SDS011;48747;50.250;18.848;2023-02-10T10:10:45;50.50;;;24.15;;
37355;SDS011;48747;50.250;18.848;2023-02-10T10:12:54;45.38;;;20.77;;
37355;SDS011;48747;50.250;18.848;2023-02-10T10:15:03;40.38;;;20.20;;
37355;SDS011;48747;50.250;18.848;2023-02-10T10:19:59;41.37;;;21.30;;
37355;SDS011;48747;50.250;18.848;2023-02-10T10:31:32;43.28;;;21.00;;
37355;SDS011;48747;50.250;18.848;2023-02-10T10:33:41;42.03;;;20.37;;
37355;SDS011;48747;50.250;18.848;2023-02-10T10:35:52;46.60;;;21.57;;
37355;SDS011;48747;50.250;18.848;2023-02-10T10:40:05;50.48;;;23.20;;
37355;SDS011;48747;50.250;18.848;2023-02-10T10:44:20;51.58;;;23.12;;
37355;SDS011;48747;50.250;18.848;2023-02-10T10:48:53;52.62;;;24.52;;
37355;SDS011;48747;50.250;18.848;2023-02-10T10:50:59;44.42;;;21.77;;
37355;SDS011;48747;50.250;18.848;2023-02-10T10:53:15;53.38;;;24.18;;
37355;SDS011;48747;50.250;18.848;2023-02-10T10:57:51;53.87;;;27.27;;
37355;SDS011;48747;50.250;18.848;2023-02-10T11:00:06;69.58;;;30.65;;
37355;SDS011;48747;50.250;18.848;2023-02-10T11:02:49;50.60;;;24.32;;
37355;SDS011;48747;50.250;18.848;2023-02-10T11:04:37;66.75;;;29.98;;
37355;SDS011;48747;50.250;18.848;2023-02-10T11:06:42;51.73;;;22.77;;
37355;SDS011;48747;50.250;18.848;2023-02-10T11:08:54;56.70;;;23.47;;
37355;SDS011;48747;50.250;18.848;2023-02-10T11:13:11;46.80;;;22.07;;
37355;SDS011;48747;50.250;18.848;2023-02-10T11:17:38;51.33;;;24.18;;
37355;SDS011;48747;50.250;18.848;2023-02-10T11:19:57;46.45;;;23.27;;
37355;SDS011;48747;50.250;18.848;2023-02-10T11:22:01;49.30;;;24.30;;
37355;SDS011;48747;50.250;18.848;2023-02-10T11:24:19;60.70;;;28.92;;
37355;SDS011;48747;50.250;18.848;2023-02-10T11:26:32;61.63;;;29.27;;
37355;SDS011;48747;50.250;18.848;2023-02-10T11:28:39;54.38;;;24.87;;
37355;SDS011;48747;50.250;18.848;2023-02-10T11:33:04;41.88;;;21.55;;
37355;SDS011;48747;50.250;18.848;2023-02-10T11:35:14;48.15;;;21.82;;
37355;SDS011;48747;50.250;18.848;2023-02-10T11:37:39;47.33;;;22.00;;
37355;SDS011;48747;50.250;18.848;2023-02-10T11:42:20;54.90;;;26.55;;
37355;SDS011;48747;50.250;18.848;2023-02-10T11:44:29;49.03;;;23.95;;
37355;SDS011;48747;50.250;18.848;2023-02-10T11:46:37;52.27;;;24.70;;
37355;SDS011;48747;50.250;18.848;2023-02-10T11:48:51;50.80;;;22.42;;
37355;SDS011;48747;50.250;18.848;2023-02-10T11:51:05;49.42;;;21.82;;
37355;SDS011;48747;50.250;18.848;2023-02-10T11:55:45;47.88;;;22.52;;
37355;SDS011;48747;50.250;18.848;2023-02-10T12:10:35;61.75;;;25.77;;
37355;SDS011;48747;50.250;18.848;2023-02-10T12:17:26;62.85;;;27.35;;
37355;SDS011;48747;50.250;18.848;2023-02-10T12:19:51;49.38;;;24.07;;
37355;SDS011;48747;50.250;18.848;2023-02-10T12:27:37;59.48;;;24.23;;
37355;SDS011;48747;50.250;18.848;2023-02-10T12:34:08;59.20;;;27.52;;
37355;SDS011;48747;50.250;18.848;2023-02-10T12:37:13;48.25;;;23.47;;
37355;SDS011;48747;50.250;18.848;2023-02-10T12:41:04;56.13;;;24.18;;
37355;SDS011;48747;50.250;18.848;2023-02-10T12:52:38;64.55;;;31.82;;
37355;SDS011;48747;50.250;18.848;2023-02-10T12:54:55;49.63;;;25.05;;
37355;SDS011;48747;50.250;18.848;2023-02-10T12:57:12;44.08;;;21.25;;
37355;SDS011;48747;50.250;18.848;2023-02-10T13:00:04;50.63;;;25.57;;
37355;SDS011;48747;50.250;18.848;2023-02-10T13:03:41;43.00;;;21.07;;
37355;SDS011;48747;50.250;18.848;2023-02-10T13:05:51;50.67;;;24.43;;
37355;SDS011;48747;50.250;18.848;2023-02-10T13:12:44;50.52;;;24.15;;
37355;SDS011;48747;50.250;18.848;2023-02-10T13:14:45;48.40;;;23.20;;
37355;SDS011;48747;50.250;18.848;2023-02-10T13:16:54;60.45;;;26.82;;
37355;SDS011;48747;50.250;18.848;2023-02-10T13:21:19;97.75;;;40.45;;
37355;SDS011;48747;50.250;18.848;2023-02-10T13:23:42;48.92;;;22.40;;
37355;SDS011;48747;50.250;18.848;2023-02-10T13:25:56;40.90;;;20.57;;
37355;SDS011;48747;50.250;18.848;2023-02-10T13:28:21;85.45;;;38.50;;
37355;SDS011;48747;50.250;18.848;2023-02-10T13:40:00;42.62;;;21.05;;
37355;SDS011;48747;50.250;18.848;2023-02-10T13:44:26;46.85;;;22.77;;
37355;SDS011;48747;50.250;18.848;2023-02-10T13:46:38;48.23;;;24.25;;
37355;SDS011;48747;50.250;18.848;2023-02-10T13:48:41;49.42;;;22.95;;
37355;SDS011;48747;50.250;18.848;2023-02-10T13:50:52;40.80;;;22.05;;
37355;SDS011;48747;50.250;18.848;2023-02-10T13:53:01;55.17;;;26.75;;
37355;SDS011;48747;50.250;18.848;2023-02-10T13:57:33;47.73;;;24.27;;
37355;SDS011;48747;50.250;18.848;2023-02-10T13:59:41;43.65;;;21.52;;
37355;SDS011;48747;50.250;18.848;2023-02-10T14:06:38;45.73;;;21.20;;
37355;SDS011;48747;50.250;18.848;2023-02-10T14:09:00;41.28;;;21.02;;
37355;SDS011;48747;50.250;18.848;2023-02-10T14:11:05;42.27;;;21.20;;
37355;SDS011;48747;50.250;18.848;2023-02-10T14:13:25;46.68;;;23.27;;
37355;SDS011;48747;50.250;18.848;2023-02-10T14:24:43;42.98;;;21.27;;
37355;SDS011;48747;50.250;18.848;2023-02-10T14:26:52;42.17;;;20.52;;
37355;SDS011;48747;50.250;18.848;2023-02-10T14:28:56;48.05;;;23.00;;
37355;SDS011;48747;50.250;18.848;2023-02-10T14:31:07;53.23;;;24.20;;
37355;SDS011;48747;50.250;18.848;2023-02-10T14:33:29;53.55;;;25.15;;
37355;SDS011;48747;50.250;18.848;2023-02-10T14:35:38;51.75;;;23.90;;
37355;SDS011;48747;50.250;18.848;2023-02-10T14:37:50;53.52;;;24.82;;
37355;SDS011;48747;50.250;18.848;2023-02-10T14:40:06;49.80;;;24.43;;
37355;SDS011;48747;50.250;18.848;2023-02-10T14:46:58;50.03;;;24.80;;